Charlevoix, MI

8:28 AM EDT on August 26, 2016 (GMT -0400)
MesoWest | | Change Station

Elev 586 ft 45.36 °N, 85.18 °W | Updated 38 minutes ago

Clear
Clear
68 °F
Feels Like 68 °F
N
9
Wind Variable Wind from WNW
Gusts 15.0 mph

Today
High -- | Low -- °F
--% Chance of Precip.
Yesterday
High -- | Low -- °F
Precip. -- in
Pressure 30.11 in
Visibility 10.0 miles
Clouds Clear
Dew Point 59 °F
Humidity 75%
Rainfall in
Snow Depth Not available.
6:55 AM 8:28 PM
Waning Crescent, 35% visible
METAR KCVX 261215Z AUTO 26004KT 10SM CLR 19/15 A3011 RMK AO2 T01920146
Pressure 30.11 in
Visibility 10.0 miles
Clouds Clear
Dew Point 59 °F
Humidity 75%
Rainfall in
Snow Depth Not available.
6:55 AM 8:28 PM
Waning Crescent, 35% visible
METAR KCVX 261215Z AUTO 26004KT 10SM CLR 19/15 A3011 RMK AO2 T01920146

10-Day Weather Forecast

Almanac

Astronomy

Aug. 26, 2016 Rise Set
Actual Time
Civil Twilight
Nautical Twilight
Astronomical Twilight
Moon
Length of Visible Light
Length of Day
Tomorrow will be .
, % of the Moon is Illuminated

Today's Extremes

State Highs State Lows

Community

WunderPhotos

Upload Photos

1,935,080 photos uploaded!

WunderBlog® & News

Nearby

Air Quality

  Air Quality AQ Index Pollutant
Not available.

Snow Depth

Station Depth Elevation

Earthquake Activity

City Distance Mag. Time & Date
Minimum magnitude displayed is 2.5.

Coastal Water Temperatures

Place Temperature

Stations

Nearby Weather Stations

Station Location Temp. Windchill Dew Point Humidity Wind Precip. Elev Updated Type
                   

Watches & Warnings

There are currently no watches in effect.